sensor_id;sensor_type;location;lat;lon;timestamp;P1;durP1;ratioP1;P2;durP2;ratioP2
52015;SDS011;38032;53.326;6.472;2022-10-16T00:01:13;7.57;;;2.33;;
52015;SDS011;38032;53.326;6.472;2022-10-16T00:03:40;9.95;;;2.70;;
52015;SDS011;38032;53.326;6.472;2022-10-16T00:06:08;8.80;;;2.42;;
52015;SDS011;38032;53.326;6.472;2022-10-16T00:08:35;7.10;;;2.33;;
52015;SDS011;38032;53.326;6.472;2022-10-16T00:11:02;5.13;;;2.20;;
52015;SDS011;38032;53.326;6.472;2022-10-16T00:13:32;9.73;;;2.42;;
52015;SDS011;38032;53.326;6.472;2022-10-16T00:15:59;7.53;;;2.60;;
52015;SDS011;38032;53.326;6.472;2022-10-16T00:18:26;8.23;;;2.20;;
52015;SDS011;38032;53.326;6.472;2022-10-16T00:20:53;4.22;;;2.13;;
52015;SDS011;38032;53.326;6.472;2022-10-16T00:23:19;6.57;;;2.30;;
52015;SDS011;38032;53.326;6.472;2022-10-16T00:25:54;7.95;;;2.63;;
52015;SDS011;38032;53.326;6.472;2022-10-16T00:28:21;6.70;;;2.42;;
52015;SDS011;38032;53.326;6.472;2022-10-16T00:30:47;5.68;;;2.15;;
52015;SDS011;38032;53.326;6.472;2022-10-16T00:33:12;5.72;;;2.13;;
52015;SDS011;38032;53.326;6.472;2022-10-16T00:35:38;4.68;;;2.35;;
52015;SDS011;38032;53.326;6.472;2022-10-16T00:38:04;6.35;;;2.30;;
52015;SDS011;38032;53.326;6.472;2022-10-16T00:40:30;7.75;;;2.72;;
52015;SDS011;38032;53.326;6.472;2022-10-16T00:42:57;9.75;;;2.22;;
52015;SDS011;38032;53.326;6.472;2022-10-16T00:45:23;6.50;;;2.13;;
52015;SDS011;38032;53.326;6.472;2022-10-16T00:47:49;6.72;;;2.35;;
52015;SDS011;38032;53.326;6.472;2022-10-16T00:50:22;7.57;;;2.40;;
52015;SDS011;38032;53.326;6.472;2022-10-16T00:52:57;6.75;;;2.58;;
52015;SDS011;38032;53.326;6.472;2022-10-16T00:55:25;5.80;;;2.05;;
52015;SDS011;38032;53.326;6.472;2022-10-16T00:57:51;5.10;;;2.30;;
52015;SDS011;38032;53.326;6.472;2022-10-16T01:00:19;4.88;;;1.90;;
52015;SDS011;38032;53.326;6.472;2022-10-16T01:02:54;7.75;;;2.60;;
52015;SDS011;38032;53.326;6.472;2022-10-16T01:05:23;8.88;;;2.17;;
52015;SDS011;38032;53.326;6.472;2022-10-16T01:07:56;4.63;;;2.13;;
52015;SDS011;38032;53.326;6.472;2022-10-16T01:10:35;7.88;;;2.20;;
52015;SDS011;38032;53.326;6.472;2022-10-16T01:13:06;4.78;;;2.40;;
52015;SDS011;38032;53.326;6.472;2022-10-16T01:15:37;4.00;;;2.10;;
52015;SDS011;38032;53.326;6.472;2022-10-16T01:18:16;5.70;;;2.20;;
52015;SDS011;38032;53.326;6.472;2022-10-16T01:20:45;7.00;;;2.15;;
52015;SDS011;38032;53.326;6.472;2022-10-16T01:23:28;5.03;;;1.95;;
52015;SDS011;38032;53.326;6.472;2022-10-16T01:28:25;7.50;;;1.95;;
52015;SDS011;38032;53.326;6.472;2022-10-16T01:30:58;10.13;;;2.15;;
52015;SDS011;38032;53.326;6.472;2022-10-16T01:33:28;7.38;;;2.15;;
52015;SDS011;38032;53.326;6.472;2022-10-16T01:36:07;9.45;;;2.35;;
52015;SDS011;38032;53.326;6.472;2022-10-16T01:38:38;5.53;;;2.05;;
52015;SDS011;38032;53.326;6.472;2022-10-16T01:41:11;5.20;;;1.98;;
52015;SDS011;38032;53.326;6.472;2022-10-16T01:43:44;6.10;;;1.98;;
52015;SDS011;38032;53.326;6.472;2022-10-16T01:46:15;4.95;;;2.17;;
52015;SDS011;38032;53.326;6.472;2022-10-16T01:48:43;5.82;;;2.53;;
52015;SDS011;38032;53.326;6.472;2022-10-16T01:51:10;6.60;;;2.13;;
52015;SDS011;38032;53.326;6.472;2022-10-16T01:53:39;4.93;;;2.22;;
52015;SDS011;38032;53.326;6.472;2022-10-16T01:56:07;5.07;;;1.88;;
52015;SDS011;38032;53.326;6.472;2022-10-16T01:58:38;6.20;;;2.00;;
52015;SDS011;38032;53.326;6.472;2022-10-16T02:01:07;6.10;;;2.20;;
52015;SDS011;38032;53.326;6.472;2022-10-16T02:03:37;4.55;;;1.95;;
52015;SDS011;38032;53.326;6.472;2022-10-16T02:06:06;4.43;;;1.83;;
52015;SDS011;38032;53.326;6.472;2022-10-16T02:08:32;5.80;;;2.15;;
52015;SDS011;38032;53.326;6.472;2022-10-16T02:10:59;5.30;;;2.15;;
52015;SDS011;38032;53.326;6.472;2022-10-16T02:13:29;5.55;;;2.20;;
52015;SDS011;38032;53.326;6.472;2022-10-16T02:15:56;5.32;;;2.13;;
52015;SDS011;38032;53.326;6.472;2022-10-16T02:18:22;4.88;;;2.15;;
52015;SDS011;38032;53.326;6.472;2022-10-16T02:20:50;5.72;;;2.10;;
52015;SDS011;38032;53.326;6.472;2022-10-16T02:23:24;5.57;;;2.10;;
52015;SDS011;38032;53.326;6.472;2022-10-16T02:25:59;5.47;;;2.00;;
52015;SDS011;38032;53.326;6.472;2022-10-16T02:28:34;7.45;;;2.10;;
52015;SDS011;38032;53.326;6.472;2022-10-16T02:31:12;5.57;;;2.15;;
52015;SDS011;38032;53.326;6.472;2022-10-16T02:33:43;5.45;;;2.30;;
52015;SDS011;38032;53.326;6.472;2022-10-16T02:36:11;7.15;;;2.20;;
52015;SDS011;38032;53.326;6.472;2022-10-16T02:38:37;4.60;;;2.42;;
52015;SDS011;38032;53.326;6.472;2022-10-16T02:41:05;5.68;;;2.20;;
52015;SDS011;38032;53.326;6.472;2022-10-16T02:43:31;4.85;;;2.08;;
52015;SDS011;38032;53.326;6.472;2022-10-16T02:45:58;5.80;;;2.25;;
52015;SDS011;38032;53.326;6.472;2022-10-16T02:48:25;5.35;;;2.10;;
52015;SDS011;38032;53.326;6.472;2022-10-16T02:50:50;4.75;;;2.30;;
52015;SDS011;38032;53.326;6.472;2022-10-16T02:53:16;5.38;;;2.15;;
52015;SDS011;38032;53.326;6.472;2022-10-16T02:55:42;4.15;;;2.20;;
52015;SDS011;38032;53.326;6.472;2022-10-16T02:58:08;6.03;;;2.38;;
52015;SDS011;38032;53.326;6.472;2022-10-16T03:00:34;6.13;;;2.40;;
52015;SDS011;38032;53.326;6.472;2022-10-16T03:02:59;7.03;;;2.63;;
52015;SDS011;38032;53.326;6.472;2022-10-16T03:05:25;5.43;;;2.38;;
52015;SDS011;38032;53.326;6.472;2022-10-16T03:07:51;5.32;;;2.20;;
52015;SDS011;38032;53.326;6.472;2022-10-16T03:10:17;8.82;;;2.20;;
52015;SDS011;38032;53.326;6.472;2022-10-16T03:12:43;5.90;;;2.30;;
52015;SDS011;38032;53.326;6.472;2022-10-16T03:15:09;6.43;;;2.13;;
52015;SDS011;38032;53.326;6.472;2022-10-16T03:17:35;6.82;;;2.13;;
52015;SDS011;38032;53.326;6.472;2022-10-16T03:20:01;5.75;;;2.10;;
52015;SDS011;38032;53.326;6.472;2022-10-16T03:22:27;6.72;;;2.30;;
52015;SDS011;38032;53.326;6.472;2022-10-16T03:24:53;6.28;;;2.40;;
52015;SDS011;38032;53.326;6.472;2022-10-16T03:27:18;4.75;;;1.90;;
52015;SDS011;38032;53.326;6.472;2022-10-16T03:29:44;4.05;;;2.05;;
52015;SDS011;38032;53.326;6.472;2022-10-16T03:32:10;5.18;;;2.10;;
52015;SDS011;38032;53.326;6.472;2022-10-16T03:34:36;6.13;;;2.22;;
52015;SDS011;38032;53.326;6.472;2022-10-16T03:37:02;6.50;;;2.10;;
52015;SDS011;38032;53.326;6.472;2022-10-16T03:39:28;4.07;;;2.10;;
52015;SDS011;38032;53.326;6.472;2022-10-16T03:41:54;4.20;;;1.90;;
52015;SDS011;38032;53.326;6.472;2022-10-16T03:44:19;4.05;;;2.20;;
52015;SDS011;38032;53.326;6.472;2022-10-16T03:46:45;7.15;;;2.38;;
52015;SDS011;38032;53.326;6.472;2022-10-16T03:49:11;5.75;;;2.35;;
52015;SDS011;38032;53.326;6.472;2022-10-16T03:51:37;5.97;;;2.20;;
52015;SDS011;38032;53.326;6.472;2022-10-16T03:54:03;6.50;;;2.30;;
52015;SDS011;38032;53.326;6.472;2022-10-16T03:56:29;3.85;;;1.90;;
52015;SDS011;38032;53.326;6.472;2022-10-16T03:58:54;4.40;;;2.08;;
52015;SDS011;38032;53.326;6.472;2022-10-16T04:01:20;5.68;;;2.17;;
52015;SDS011;38032;53.326;6.472;2022-10-16T04:03:46;4.45;;;2.00;;
52015;SDS011;38032;53.326;6.472;2022-10-16T04:06:12;4.45;;;2.20;;
52015;SDS011;38032;53.326;6.472;2022-10-16T04:08:37;4.00;;;2.22;;
52015;SDS011;38032;53.326;6.472;2022-10-16T04:11:04;4.43;;;2.10;;
52015;SDS011;38032;53.326;6.472;2022-10-16T04:13:30;6.07;;;2.38;;
52015;SDS011;38032;53.326;6.472;2022-10-16T04:15:56;5.95;;;2.20;;
52015;SDS011;38032;53.326;6.472;2022-10-16T04:18:22;4.05;;;2.28;;
52015;SDS011;38032;53.326;6.472;2022-10-16T04:20:48;3.75;;;2.25;;
52015;SDS011;38032;53.326;6.472;2022-10-16T04:23:14;5.68;;;2.30;;
52015;SDS011;38032;53.326;6.472;2022-10-16T04:25:40;4.50;;;2.20;;
52015;SDS011;38032;53.326;6.472;2022-10-16T04:28:05;5.30;;;2.03;;
52015;SDS011;38032;53.326;6.472;2022-10-16T04:30:31;4.47;;;2.10;;
52015;SDS011;38032;53.326;6.472;2022-10-16T04:32:58;4.78;;;2.22;;
52015;SDS011;38032;53.326;6.472;2022-10-16T04:35:24;5.82;;;2.00;;
52015;SDS011;38032;53.326;6.472;2022-10-16T04:37:50;3.60;;;2.40;;
52015;SDS011;38032;53.326;6.472;2022-10-16T04:40:16;3.90;;;2.00;;
52015;SDS011;38032;53.326;6.472;2022-10-16T04:42:42;5.22;;;2.40;;
52015;SDS011;38032;53.326;6.472;2022-10-16T04:45:08;3.42;;;1.98;;
52015;SDS011;38032;53.326;6.472;2022-10-16T04:47:34;3.72;;;2.00;;
52015;SDS011;38032;53.326;6.472;2022-10-16T04:50:00;4.15;;;2.22;;
52015;SDS011;38032;53.326;6.472;2022-10-16T04:52:27;3.22;;;2.00;;
52015;SDS011;38032;53.326;6.472;2022-10-16T04:54:53;4.80;;;2.10;;
52015;SDS011;38032;53.326;6.472;2022-10-16T04:57:20;4.50;;;2.28;;
52015;SDS011;38032;53.326;6.472;2022-10-16T04:59:46;4.35;;;2.05;;
52015;SDS011;38032;53.326;6.472;2022-10-16T05:02:12;4.60;;;2.00;;
52015;SDS011;38032;53.326;6.472;2022-10-16T05:04:37;5.18;;;2.33;;
52015;SDS011;38032;53.326;6.472;2022-10-16T05:07:03;4.82;;;2.28;;
52015;SDS011;38032;53.326;6.472;2022-10-16T05:09:29;4.88;;;2.28;;
52015;SDS011;38032;53.326;6.472;2022-10-16T05:11:55;3.22;;;1.90;;
52015;SDS011;38032;53.326;6.472;2022-10-16T05:14:21;4.35;;;2.05;;
52015;SDS011;38032;53.326;6.472;2022-10-16T05:16:46;4.50;;;2.10;;
52015;SDS011;38032;53.326;6.472;2022-10-16T05:19:13;4.43;;;2.22;;
52015;SDS011;38032;53.326;6.472;2022-10-16T05:21:39;4.80;;;2.03;;
52015;SDS011;38032;53.326;6.472;2022-10-16T05:24:04;4.68;;;2.25;;
52015;SDS011;38032;53.326;6.472;2022-10-16T05:26:30;4.43;;;1.95;;
52015;SDS011;38032;53.326;6.472;2022-10-16T05:28:56;4.32;;;2.15;;
52015;SDS011;38032;53.326;6.472;2022-10-16T05:31:22;5.13;;;2.30;;
52015;SDS011;38032;53.326;6.472;2022-10-16T05:33:48;6.68;;;2.38;;
52015;SDS011;38032;53.326;6.472;2022-10-16T05:36:14;8.10;;;2.42;;
52015;SDS011;38032;53.326;6.472;2022-10-16T05:38:39;7.50;;;2.40;;
52015;SDS011;38032;53.326;6.472;2022-10-16T05:41:05;7.47;;;2.50;;
52015;SDS011;38032;53.326;6.472;2022-10-16T05:43:31;4.15;;;2.15;;
52015;SDS011;38032;53.326;6.472;2022-10-16T05:45:58;6.50;;;2.30;;
52015;SDS011;38032;53.326;6.472;2022-10-16T05:48:25;6.20;;;2.47;;
52015;SDS011;38032;53.326;6.472;2022-10-16T05:50:56;5.97;;;2.33;;
52015;SDS011;38032;53.326;6.472;2022-10-16T05:53:23;5.40;;;2.22;;
52015;SDS011;38032;53.326;6.472;2022-10-16T05:55:52;5.88;;;2.50;;
52015;SDS011;38032;53.326;6.472;2022-10-16T05:58:18;6.35;;;2.75;;
52015;SDS011;38032;53.326;6.472;2022-10-16T06:00:44;7.13;;;2.60;;
52015;SDS011;38032;53.326;6.472;2022-10-16T06:03:17;7.68;;;2.38;;
52015;SDS011;38032;53.326;6.472;2022-10-16T06:05:43;4.28;;;2.50;;
52015;SDS011;38032;53.326;6.472;2022-10-16T06:08:08;7.00;;;2.65;;
52015;SDS011;38032;53.326;6.472;2022-10-16T06:10:34;7.00;;;2.60;;
52015;SDS011;38032;53.326;6.472;2022-10-16T06:13:00;4.95;;;2.30;;
52015;SDS011;38032;53.326;6.472;2022-10-16T06:15:26;8.23;;;2.70;;
52015;SDS011;38032;53.326;6.472;2022-10-16T06:17:52;5.93;;;2.60;;
52015;SDS011;38032;53.326;6.472;2022-10-16T06:20:17;6.55;;;3.20;;
52015;SDS011;38032;53.326;6.472;2022-10-16T06:22:43;5.68;;;2.80;;
52015;SDS011;38032;53.326;6.472;2022-10-16T06:25:09;5.72;;;2.75;;
52015;SDS011;38032;53.326;6.472;2022-10-16T06:27:35;4.90;;;2.70;;
52015;SDS011;38032;53.326;6.472;2022-10-16T06:30:01;5.40;;;2.67;;
52015;SDS011;38032;53.326;6.472;2022-10-16T06:32:28;6.88;;;3.20;;
52015;SDS011;38032;53.326;6.472;2022-10-16T06:34:54;5.68;;;3.10;;
52015;SDS011;38032;53.326;6.472;2022-10-16T06:37:20;7.38;;;3.03;;
52015;SDS011;38032;53.326;6.472;2022-10-16T06:39:47;8.63;;;3.13;;
52015;SDS011;38032;53.326;6.472;2022-10-16T06:42:12;9.05;;;3.33;;
52015;SDS011;38032;53.326;6.472;2022-10-16T06:44:38;5.97;;;2.80;;
52015;SDS011;38032;53.326;6.472;2022-10-16T06:47:04;5.32;;;2.95;;
52015;SDS011;38032;53.326;6.472;2022-10-16T06:49:30;6.85;;;3.22;;
52015;SDS011;38032;53.326;6.472;2022-10-16T06:51:56;8.07;;;3.00;;
52015;SDS011;38032;53.326;6.472;2022-10-16T06:54:21;6.43;;;3.20;;
52015;SDS011;38032;53.326;6.472;2022-10-16T06:56:47;6.13;;;3.10;;
52015;SDS011;38032;53.326;6.472;2022-10-16T06:59:13;8.23;;;3.30;;
52015;SDS011;38032;53.326;6.472;2022-10-16T07:01:39;5.63;;;2.47;;
52015;SDS011;38032;53.326;6.472;2022-10-16T07:04:05;5.95;;;2.75;;
52015;SDS011;38032;53.326;6.472;2022-10-16T07:06:31;8.52;;;2.83;;
52015;SDS011;38032;53.326;6.472;2022-10-16T07:09:00;6.65;;;2.80;;
52015;SDS011;38032;53.326;6.472;2022-10-16T07:11:27;6.95;;;2.70;;
52015;SDS011;38032;53.326;6.472;2022-10-16T07:13:53;7.00;;;2.58;;
52015;SDS011;38032;53.326;6.472;2022-10-16T07:16:20;5.18;;;2.63;;
52015;SDS011;38032;53.326;6.472;2022-10-16T07:18:47;6.53;;;2.83;;
52015;SDS011;38032;53.326;6.472;2022-10-16T07:21:15;4.57;;;2.40;;
52015;SDS011;38032;53.326;6.472;2022-10-16T07:23:42;6.32;;;2.50;;
52015;SDS011;38032;53.326;6.472;2022-10-16T07:26:08;4.90;;;2.45;;
52015;SDS011;38032;53.326;6.472;2022-10-16T07:28:35;5.43;;;2.90;;
52015;SDS011;38032;53.326;6.472;2022-10-16T07:31:02;6.07;;;2.70;;
52015;SDS011;38032;53.326;6.472;2022-10-16T07:33:31;4.63;;;2.13;;
52015;SDS011;38032;53.326;6.472;2022-10-16T07:35:57;4.93;;;2.10;;
52015;SDS011;38032;53.326;6.472;2022-10-16T07:38:23;5.80;;;2.53;;
52015;SDS011;38032;53.326;6.472;2022-10-16T07:40:55;7.97;;;2.33;;
52015;SDS011;38032;53.326;6.472;2022-10-16T07:43:22;6.10;;;2.30;;
52015;SDS011;38032;53.326;6.472;2022-10-16T07:45:49;4.88;;;1.98;;
52015;SDS011;38032;53.326;6.472;2022-10-16T07:48:15;4.90;;;2.30;;
52015;SDS011;38032;53.326;6.472;2022-10-16T07:50:42;5.35;;;2.15;;
52015;SDS011;38032;53.326;6.472;2022-10-16T07:53:08;6.68;;;2.17;;
52015;SDS011;38032;53.326;6.472;2022-10-16T07:55:35;5.82;;;2.13;;
52015;SDS011;38032;53.326;6.472;2022-10-16T07:58:01;5.25;;;2.10;;
52015;SDS011;38032;53.326;6.472;2022-10-16T08:00:27;5.07;;;2.00;;
52015;SDS011;38032;53.326;6.472;2022-10-16T08:02:53;7.18;;;2.45;;
52015;SDS011;38032;53.326;6.472;2022-10-16T08:05:19;5.80;;;2.38;;
52015;SDS011;38032;53.326;6.472;2022-10-16T08:07:49;4.10;;;2.17;;
52015;SDS011;38032;53.326;6.472;2022-10-16T08:10:18;7.35;;;2.53;;
52015;SDS011;38032;53.326;6.472;2022-10-16T08:12:45;7.45;;;2.33;;
52015;SDS011;38032;53.326;6.472;2022-10-16T08:15:11;4.88;;;2.20;;
52015;SDS011;38032;53.326;6.472;2022-10-16T08:17:37;7.88;;;2.88;;
52015;SDS011;38032;53.326;6.472;2022-10-16T08:20:03;5.50;;;2.40;;
52015;SDS011;38032;53.326;6.472;2022-10-16T08:22:30;5.63;;;2.13;;
52015;SDS011;38032;53.326;6.472;2022-10-16T08:24:56;6.10;;;2.47;;
52015;SDS011;38032;53.326;6.472;2022-10-16T08:27:22;6.20;;;2.67;;
52015;SDS011;38032;53.326;6.472;2022-10-16T08:29:49;4.95;;;2.40;;
52015;SDS011;38032;53.326;6.472;2022-10-16T08:32:14;4.35;;;2.15;;
52015;SDS011;38032;53.326;6.472;2022-10-16T08:34:40;4.28;;;2.03;;
52015;SDS011;38032;53.326;6.472;2022-10-16T08:37:06;4.40;;;1.90;;
52015;SDS011;38032;53.326;6.472;2022-10-16T08:39:36;4.47;;;2.10;;
52015;SDS011;38032;53.326;6.472;2022-10-16T08:44:35;4.53;;;2.25;;
52015;SDS011;38032;53.326;6.472;2022-10-16T08:47:22;6.75;;;2.20;;
52015;SDS011;38032;53.326;6.472;2022-10-16T08:49:58;5.15;;;1.90;;
52015;SDS011;38032;53.326;6.472;2022-10-16T08:52:29;6.18;;;2.25;;
52015;SDS011;38032;53.326;6.472;2022-10-16T08:54:57;4.20;;;1.90;;
52015;SDS011;38032;53.326;6.472;2022-10-16T08:57:24;5.03;;;1.80;;
52015;SDS011;38032;53.326;6.472;2022-10-16T08:59:52;5.05;;;2.00;;
52015;SDS011;38032;53.326;6.472;2022-10-16T09:04:52;3.95;;;1.90;;
52015;SDS011;38032;53.326;6.472;2022-10-16T09:07:32;5.28;;;2.10;;
52015;SDS011;38032;53.326;6.472;2022-10-16T09:10:19;5.20;;;2.00;;
52015;SDS011;38032;53.326;6.472;2022-10-16T09:12:57;5.88;;;2.25;;
52015;SDS011;38032;53.326;6.472;2022-10-16T09:15:38;6.55;;;1.95;;
52015;SDS011;38032;53.326;6.472;2022-10-16T09:18:22;5.05;;;1.90;;
52015;SDS011;38032;53.326;6.472;2022-10-16T09:21:08;5.88;;;1.92;;
52015;SDS011;38032;53.326;6.472;2022-10-16T09:23:39;5.50;;;1.90;;
52015;SDS011;38032;53.326;6.472;2022-10-16T09:26:05;6.80;;;1.90;;
52015;SDS011;38032;53.326;6.472;2022-10-16T09:28:35;7.95;;;2.10;;
52015;SDS011;38032;53.326;6.472;2022-10-16T09:31:01;8.55;;;1.85;;
52015;SDS011;38032;53.326;6.472;2022-10-16T09:33:30;5.95;;;2.00;;
52015;SDS011;38032;53.326;6.472;2022-10-16T09:36:00;6.60;;;2.20;;
52015;SDS011;38032;53.326;6.472;2022-10-16T09:38:29;7.18;;;2.00;;
52015;SDS011;38032;53.326;6.472;2022-10-16T09:40:57;6.68;;;2.20;;
52015;SDS011;38032;53.326;6.472;2022-10-16T09:43:25;5.38;;;2.03;;
52015;SDS011;38032;53.326;6.472;2022-10-16T09:45:59;6.03;;;1.88;;
52015;SDS011;38032;53.326;6.472;2022-10-16T09:48:29;6.53;;;2.00;;
52015;SDS011;38032;53.326;6.472;2022-10-16T09:51:02;7.60;;;1.95;;
52015;SDS011;38032;53.326;6.472;2022-10-16T09:53:41;4.78;;;1.90;;
52015;SDS011;38032;53.326;6.472;2022-10-16T09:56:09;6.28;;;2.03;;
52015;SDS011;38032;53.326;6.472;2022-10-16T09:58:41;7.25;;;2.05;;
52015;SDS011;38032;53.326;6.472;2022-10-16T10:01:12;5.38;;;1.92;;
52015;SDS011;38032;53.326;6.472;2022-10-16T10:03:40;7.63;;;2.10;;
52015;SDS011;38032;53.326;6.472;2022-10-16T10:06:18;9.35;;;2.55;;
52015;SDS011;38032;53.326;6.472;2022-10-16T10:08:52;6.47;;;2.30;;
52015;SDS011;38032;53.326;6.472;2022-10-16T10:11:35;5.30;;;1.98;;
52015;SDS011;38032;53.326;6.472;2022-10-16T10:14:03;5.68;;;2.15;;
52015;SDS011;38032;53.326;6.472;2022-10-16T10:16:31;6.88;;;2.20;;
52015;SDS011;38032;53.326;6.472;2022-10-16T10:18:58;4.60;;;1.98;;
52015;SDS011;38032;53.326;6.472;2022-10-16T10:21:25;8.82;;;2.20;;
52015;SDS011;38032;53.326;6.472;2022-10-16T10:23:55;8.50;;;2.20;;
52015;SDS011;38032;53.326;6.472;2022-10-16T10:26:23;9.52;;;2.50;;
52015;SDS011;38032;53.326;6.472;2022-10-16T10:31:20;8.45;;;2.42;;
52015;SDS011;38032;53.326;6.472;2022-10-16T10:34:00;6.97;;;1.83;;
52015;SDS011;38032;53.326;6.472;2022-10-16T10:36:37;6.60;;;2.15;;
52015;SDS011;38032;53.326;6.472;2022-10-16T10:39:15;7.45;;;2.20;;
52015;SDS011;38032;53.326;6.472;2022-10-16T10:41:56;8.63;;;2.13;;
52015;SDS011;38032;53.326;6.472;2022-10-16T11:06:03;6.10;;;2.10;;
52015;SDS011;38032;53.326;6.472;2022-10-16T11:11:14;6.50;;;1.90;;
52015;SDS011;38032;53.326;6.472;2022-10-16T11:16:24;7.65;;;2.13;;
52015;SDS011;38032;53.326;6.472;2022-10-16T11:19:26;7.97;;;2.20;;
52015;SDS011;38032;53.326;6.472;2022-10-16T11:22:01;9.18;;;2.30;;
52015;SDS011;38032;53.326;6.472;2022-10-16T11:24:53;15.30;;;3.13;;
52015;SDS011;38032;53.326;6.472;2022-10-16T11:27:20;11.23;;;2.53;;
52015;SDS011;38032;53.326;6.472;2022-10-16T11:29:55;9.52;;;2.88;;
52015;SDS011;38032;53.326;6.472;2022-10-16T11:32:27;9.18;;;2.55;;
52015;SDS011;38032;53.326;6.472;2022-10-16T11:35:00;10.88;;;2.35;;
52015;SDS011;38032;53.326;6.472;2022-10-16T11:37:36;10.63;;;2.50;;
52015;SDS011;38032;53.326;6.472;2022-10-16T11:40:11;9.02;;;2.33;;
52015;SDS011;38032;53.326;6.472;2022-10-16T11:43:04;10.65;;;1.98;;
52015;SDS011;38032;53.326;6.472;2022-10-16T11:45:42;11.05;;;2.55;;
52015;SDS011;38032;53.326;6.472;2022-10-16T11:48:17;7.07;;;2.00;;
52015;SDS011;38032;53.326;6.472;2022-10-16T11:51:08;8.27;;;2.28;;
52015;SDS011;38032;53.326;6.472;2022-10-16T11:53:44;10.20;;;2.47;;
52015;SDS011;38032;53.326;6.472;2022-10-16T11:56:29;8.40;;;2.70;;
52015;SDS011;38032;53.326;6.472;2022-10-16T11:59:05;8.75;;;2.70;;
52015;SDS011;38032;53.326;6.472;2022-10-16T12:01:44;13.68;;;2.83;;
52015;SDS011;38032;53.326;6.472;2022-10-16T12:04:23;12.35;;;2.72;;
52015;SDS011;38032;53.326;6.472;2022-10-16T12:07:04;9.27;;;2.22;;
52015;SDS011;38032;53.326;6.472;2022-10-16T12:09:36;8.05;;;2.17;;
52015;SDS011;38032;53.326;6.472;2022-10-16T12:12:04;6.30;;;1.98;;
52015;SDS011;38032;53.326;6.472;2022-10-16T12:17:25;8.65;;;2.00;;
52015;SDS011;38032;53.326;6.472;2022-10-16T12:20:12;6.68;;;2.10;;
52015;SDS011;38032;53.326;6.472;2022-10-16T12:22:47;8.93;;;2.20;;
52015;SDS011;38032;53.326;6.472;2022-10-16T12:25:19;8.10;;;2.30;;
52015;SDS011;38032;53.326;6.472;2022-10-16T12:27:53;7.82;;;2.30;;
52015;SDS011;38032;53.326;6.472;2022-10-16T12:30:22;7.32;;;2.00;;
52015;SDS011;38032;53.326;6.472;2022-10-16T12:32:55;9.07;;;1.80;;
52015;SDS011;38032;53.326;6.472;2022-10-16T12:35:28;8.63;;;1.83;;
52015;SDS011;38032;53.326;6.472;2022-10-16T12:38:05;7.07;;;2.00;;
52015;SDS011;38032;53.326;6.472;2022-10-16T12:40:33;12.40;;;3.00;;
52015;SDS011;38032;53.326;6.472;2022-10-16T12:43:11;10.88;;;2.75;;
52015;SDS011;38032;53.326;6.472;2022-10-16T12:45:58;8.25;;;2.20;;
52015;SDS011;38032;53.326;6.472;2022-10-16T12:48:26;7.28;;;2.38;;
52015;SDS011;38032;53.326;6.472;2022-10-16T12:50:53;10.50;;;2.08;;
52015;SDS011;38032;53.326;6.472;2022-10-16T12:53:20;8.80;;;2.20;;
52015;SDS011;38032;53.326;6.472;2022-10-16T12:55:52;7.05;;;1.80;;
52015;SDS011;38032;53.326;6.472;2022-10-16T13:01:06;7.60;;;2.10;;
52015;SDS011;38032;53.326;6.472;2022-10-16T13:14:50;6.95;;;1.88;;
52015;SDS011;38032;53.326;6.472;2022-10-16T13:22:56;5.47;;;1.98;;
52015;SDS011;38032;53.326;6.472;2022-10-16T13:25:38;8.63;;;2.08;;
52015;SDS011;38032;53.326;6.472;2022-10-16T13:28:13;7.93;;;2.10;;
52015;SDS011;38032;53.326;6.472;2022-10-16T13:30:40;8.20;;;2.17;;
52015;SDS011;38032;53.326;6.472;2022-10-16T13:33:16;8.13;;;1.85;;
52015;SDS011;38032;53.326;6.472;2022-10-16T13:35:49;8.95;;;2.15;;
52015;SDS011;38032;53.326;6.472;2022-10-16T13:38:18;11.93;;;2.58;;
52015;SDS011;38032;53.326;6.472;2022-10-16T13:40:49;6.60;;;1.75;;
52015;SDS011;38032;53.326;6.472;2022-10-16T13:43:26;8.18;;;2.28;;
52015;SDS011;38032;53.326;6.472;2022-10-16T13:45:58;10.60;;;2.95;;
52015;SDS011;38032;53.326;6.472;2022-10-16T13:48:27;12.70;;;2.42;;
52015;SDS011;38032;53.326;6.472;2022-10-16T13:50:58;8.05;;;2.58;;
52015;SDS011;38032;53.326;6.472;2022-10-16T13:53:25;10.05;;;2.38;;
52015;SDS011;38032;53.326;6.472;2022-10-16T13:55:51;8.98;;;2.15;;
52015;SDS011;38032;53.326;6.472;2022-10-16T13:58:17;9.50;;;2.15;;
52015;SDS011;38032;53.326;6.472;2022-10-16T14:00:58;9.98;;;2.40;;
52015;SDS011;38032;53.326;6.472;2022-10-16T14:03:27;12.30;;;2.30;;
52015;SDS011;38032;53.326;6.472;2022-10-16T14:05:56;9.75;;;2.10;;
52015;SDS011;38032;53.326;6.472;2022-10-16T14:08:26;8.60;;;2.10;;
52015;SDS011;38032;53.326;6.472;2022-10-16T14:10:54;10.95;;;2.17;;
52015;SDS011;38032;53.326;6.472;2022-10-16T14:13:26;9.80;;;2.25;;
52015;SDS011;38032;53.326;6.472;2022-10-16T14:15:55;9.30;;;2.42;;
52015;SDS011;38032;53.326;6.472;2022-10-16T14:18:24;9.38;;;2.63;;
52015;SDS011;38032;53.326;6.472;2022-10-16T14:20:52;9.38;;;2.05;;
52015;SDS011;38032;53.326;6.472;2022-10-16T14:23:20;10.65;;;2.28;;
52015;SDS011;38032;53.326;6.472;2022-10-16T14:25:47;9.25;;;2.13;;
52015;SDS011;38032;53.326;6.472;2022-10-16T14:28:15;8.82;;;2.20;;
52015;SDS011;38032;53.326;6.472;2022-10-16T14:30:49;7.50;;;2.10;;
52015;SDS011;38032;53.326;6.472;2022-10-16T14:33:24;9.43;;;2.20;;
52015;SDS011;38032;53.326;6.472;2022-10-16T14:38:31;10.75;;;2.45;;
52015;SDS011;38032;53.326;6.472;2022-10-16T14:40:59;11.63;;;2.67;;
52015;SDS011;38032;53.326;6.472;2022-10-16T14:43:29;9.32;;;2.33;;
52015;SDS011;38032;53.326;6.472;2022-10-16T14:46:01;7.28;;;1.88;;
52015;SDS011;38032;53.326;6.472;2022-10-16T14:48:30;11.60;;;2.72;;
52015;SDS011;38032;53.326;6.472;2022-10-16T14:50:56;10.77;;;2.45;;
52015;SDS011;38032;53.326;6.472;2022-10-16T14:53:22;11.40;;;2.38;;
52015;SDS011;38032;53.326;6.472;2022-10-16T14:55:48;7.90;;;2.20;;
52015;SDS011;38032;53.326;6.472;2022-10-16T14:58:15;9.45;;;2.30;;
52015;SDS011;38032;53.326;6.472;2022-10-16T15:00:44;9.43;;;2.55;;
52015;SDS011;38032;53.326;6.472;2022-10-16T15:03:10;7.43;;;2.20;;
52015;SDS011;38032;53.326;6.472;2022-10-16T15:05:39;8.93;;;2.40;;
52015;SDS011;38032;53.326;6.472;2022-10-16T15:08:05;7.53;;;1.90;;
52015;SDS011;38032;53.326;6.472;2022-10-16T15:10:31;11.32;;;2.53;;
52015;SDS011;38032;53.326;6.472;2022-10-16T15:13:03;7.68;;;1.92;;
52015;SDS011;38032;53.326;6.472;2022-10-16T15:15:36;11.95;;;2.42;;
52015;SDS011;38032;53.326;6.472;2022-10-16T15:18:03;10.60;;;2.47;;
52015;SDS011;38032;53.326;6.472;2022-10-16T15:20:31;8.15;;;2.10;;
52015;SDS011;38032;53.326;6.472;2022-10-16T15:23:02;11.60;;;2.35;;
52015;SDS011;38032;53.326;6.472;2022-10-16T15:25:31;11.10;;;2.30;;
52015;SDS011;38032;53.326;6.472;2022-10-16T15:28:01;8.98;;;2.40;;
52015;SDS011;38032;53.326;6.472;2022-10-16T15:30:28;9.65;;;2.40;;
52015;SDS011;38032;53.326;6.472;2022-10-16T15:32:54;6.43;;;1.98;;
52015;SDS011;38032;53.326;6.472;2022-10-16T15:35:20;7.38;;;2.10;;
52015;SDS011;38032;53.326;6.472;2022-10-16T15:37:47;9.70;;;2.30;;
52015;SDS011;38032;53.326;6.472;2022-10-16T15:40:13;10.23;;;2.85;;
52015;SDS011;38032;53.326;6.472;2022-10-16T15:42:45;10.60;;;2.35;;
52015;SDS011;38032;53.326;6.472;2022-10-16T15:48:44;8.15;;;2.15;;
52015;SDS011;38032;53.326;6.472;2022-10-16T15:51:10;20.02;;;16.83;;
52015;SDS011;38032;53.326;6.472;2022-10-16T15:56:22;11.77;;;3.40;;
52015;SDS011;38032;53.326;6.472;2022-10-16T15:58:50;11.32;;;2.60;;
52015;SDS011;38032;53.326;6.472;2022-10-16T16:01:17;8.38;;;2.60;;
52015;SDS011;38032;53.326;6.472;2022-10-16T16:03:43;11.05;;;2.35;;
52015;SDS011;38032;53.326;6.472;2022-10-16T16:06:14;9.98;;;2.90;;